ダブリン の空港の天気 - METARとTAF

ダブリン空港 ( EIDW / DUB ) - アイルランド ダブリン
飛行場実況気象(Metar)
観測時間04/21 16:00 GMT (04/21 15:00 UTC)
風向・風速南南西 6m/s
視程10km以上
天気現象
なし
気温21℃
湿度35%
気圧1014hPa
METAREIDW 211500Z 21012KT 170V270 CAVOK 21/05 Q1014 NOSIG
過去の天気等 Google飛行場航空写真 Wunderground天気予報

過去48時間のMETAR

飛行場予報(TAF)
発表時間: 4/21 12:00 GMT (4/21 11:00 UTC)
予報対象時間: 21日13時 GMT ~ 22日13時 GMT
風向・風速南南東 4m/s
視程10km以上
なし
21日15時 GMT ~ 21日17時 GMT に徐々に
風向・風速南南西 6m/s
21日23時 GMT ~ 22日1時 GMT に徐々に
風向・風速南東 4m/s
22日1時 GMT ~ 22日9時 GMT に 確率 30% で一時的に
視程400m
天気現象
全天の8割程度の雲 雲底高度 30m
TAF EIDW 211100Z 2112/2212 15007KT CAVOK
BECMG 2114/2116 20012KT
BECMG 2122/2124 14008KT
PROB30 TEMPO 2200/2208 0400 FG BKN001